sensor_id;sensor_type;location;lat;lon;timestamp;pressure;altitude;pressure_sealevel;temperature;humidity
20622;BME280;10470;42.670;23.354;2023-04-19T00:01:51;94425.69;;;11.12;100.00
20622;BME280;10470;42.670;23.354;2023-04-19T00:04:17;94431.63;;;11.01;100.00
20622;BME280;10470;42.670;23.354;2023-04-19T00:06:43;94432.06;;;11.09;100.00
20622;BME280;10470;42.670;23.354;2023-04-19T00:09:08;94424.81;;;11.06;100.00
20622;BME280;10470;42.670;23.354;2023-04-19T00:11:34;94429.50;;;11.05;100.00
20622;BME280;10470;42.670;23.354;2023-04-19T00:13:59;94424.81;;;10.97;100.00
20622;BME280;10470;42.670;23.354;2023-04-19T00:16:24;94425.44;;;10.91;100.00
20622;BME280;10470;42.670;23.354;2023-04-19T00:18:50;94424.66;;;11.00;100.00
20622;BME280;10470;42.670;23.354;2023-04-19T00:21:15;94422.69;;;11.01;100.00
20622;BME280;10470;42.670;23.354;2023-04-19T00:23:41;94416.94;;;10.99;100.00
20622;BME280;10470;42.670;23.354;2023-04-19T00:26:06;94421.63;;;10.98;100.00
20622;BME280;10470;42.670;23.354;2023-04-19T00:28:32;94421.03;;;10.94;100.00
20622;BME280;10470;42.670;23.354;2023-04-19T00:30:58;94410.03;;;10.70;100.00
20622;BME280;10470;42.670;23.354;2023-04-19T00:33:23;94408.81;;;10.71;100.00
20622;BME280;10470;42.670;23.354;2023-04-19T00:35:49;94407.00;;;10.77;100.00
20622;BME280;10470;42.670;23.354;2023-04-19T00:38:14;94405.16;;;10.92;100.00
20622;BME280;10470;42.670;23.354;2023-04-19T00:40:39;94419.97;;;10.91;100.00
20622;BME280;10470;42.670;23.354;2023-04-19T00:43:05;94417.25;;;11.01;100.00
20622;BME280;10470;42.670;23.354;2023-04-19T00:45:31;94408.28;;;11.09;100.00
20622;BME280;10470;42.670;23.354;2023-04-19T00:48:00;94405.66;;;10.82;100.00
20622;BME280;10470;42.670;23.354;2023-04-19T00:50:25;94408.13;;;11.04;100.00
20622;BME280;10470;42.670;23.354;2023-04-19T00:52:52;94398.47;;;10.93;100.00
20622;BME280;10470;42.670;23.354;2023-04-19T00:55:19;94396.81;;;10.96;100.00
20622;BME280;10470;42.670;23.354;2023-04-19T00:57:46;94408.13;;;11.04;100.00
20622;BME280;10470;42.670;23.354;2023-04-19T01:00:12;94395.19;;;10.80;100.00
20622;BME280;10470;42.670;23.354;2023-04-19T01:02:38;94392.50;;;10.62;100.00
20622;BME280;10470;42.670;23.354;2023-04-19T01:05:03;94394.13;;;10.78;100.00
20622;BME280;10470;42.670;23.354;2023-04-19T01:07:29;94388.81;;;10.83;100.00
20622;BME280;10470;42.670;23.354;2023-04-19T01:09:54;94396.72;;;10.72;100.00
20622;BME280;10470;42.670;23.354;2023-04-19T01:12:20;94398.53;;;10.84;100.00
20622;BME280;10470;42.670;23.354;2023-04-19T01:14:45;94390.13;;;10.97;100.00
20622;BME280;10470;42.670;23.354;2023-04-19T01:17:11;94391.84;;;10.85;100.00
20622;BME280;10470;42.670;23.354;2023-04-19T01:19:38;94392.22;;;11.02;100.00
20622;BME280;10470;42.670;23.354;2023-04-19T01:22:03;94393.00;;;11.03;100.00
20622;BME280;10470;42.670;23.354;2023-04-19T01:24:30;94393.09;;;10.75;100.00
20622;BME280;10470;42.670;23.354;2023-04-19T01:26:56;94397.28;;;10.85;100.00
20622;BME280;10470;42.670;23.354;2023-04-19T01:29:21;94390.97;;;10.70;100.00
20622;BME280;10470;42.670;23.354;2023-04-19T01:31:47;94384.78;;;10.60;100.00
20622;BME280;10470;42.670;23.354;2023-04-19T01:34:20;94391.28;;;10.63;100.00
20622;BME280;10470;42.670;23.354;2023-04-19T01:36:47;94390.53;;;10.62;100.00
20622;BME280;10470;42.670;23.354;2023-04-19T01:39:13;94380.81;;;10.70;100.00
20622;BME280;10470;42.670;23.354;2023-04-19T01:41:38;94387.38;;;10.64;100.00
20622;BME280;10470;42.670;23.354;2023-04-19T01:44:04;94392.34;;;10.65;100.00
20622;BME280;10470;42.670;23.354;2023-04-19T01:46:29;94388.56;;;10.63;100.00
20622;BME280;10470;42.670;23.354;2023-04-19T01:48:55;94383.41;;;10.74;100.00
20622;BME280;10470;42.670;23.354;2023-04-19T01:51:20;94377.84;;;10.59;100.00
20622;BME280;10470;42.670;23.354;2023-04-19T01:53:46;94374.06;;;10.57;100.00
20622;BME280;10470;42.670;23.354;2023-04-19T01:56:17;94372.38;;;10.59;100.00
20622;BME280;10470;42.670;23.354;2023-04-19T01:58:43;94383.56;;;10.70;100.00
20622;BME280;10470;42.670;23.354;2023-04-19T02:01:08;94379.19;;;10.55;100.00
20622;BME280;10470;42.670;23.354;2023-04-19T02:03:39;94375.13;;;10.32;100.00
20622;BME280;10470;42.670;23.354;2023-04-19T02:06:05;94368.19;;;10.31;100.00
20622;BME280;10470;42.670;23.354;2023-04-19T02:08:34;94368.47;;;10.51;100.00
20622;BME280;10470;42.670;23.354;2023-04-19T02:10:59;94373.78;;;10.45;100.00
20622;BME280;10470;42.670;23.354;2023-04-19T02:13:30;94376.63;;;10.23;100.00
20622;BME280;10470;42.670;23.354;2023-04-19T02:15:55;94374.97;;;10.17;100.00
20622;BME280;10470;42.670;23.354;2023-04-19T02:18:20;94370.75;;;10.25;100.00
20622;BME280;10470;42.670;23.354;2023-04-19T02:20:46;94358.34;;;10.05;100.00
20622;BME280;10470;42.670;23.354;2023-04-19T02:23:12;94363.78;;;10.05;100.00
20622;BME280;10470;42.670;23.354;2023-04-19T02:25:37;94363.94;;;10.20;100.00
20622;BME280;10470;42.670;23.354;2023-04-19T02:28:02;94358.66;;;10.07;100.00
20622;BME280;10470;42.670;23.354;2023-04-19T02:30:28;94357.31;;;9.94;100.00
20622;BME280;10470;42.670;23.354;2023-04-19T02:32:53;94358.66;;;10.07;100.00
20622;BME280;10470;42.670;23.354;2023-04-19T02:35:19;94362.00;;;10.30;100.00
20622;BME280;10470;42.670;23.354;2023-04-19T02:37:44;94361.38;;;10.35;100.00
20622;BME280;10470;42.670;23.354;2023-04-19T02:40:10;94370.91;;;10.12;100.00
20622;BME280;10470;42.670;23.354;2023-04-19T02:42:35;94373.16;;;10.23;100.00
20622;BME280;10470;42.670;23.354;2023-04-19T02:45:01;94368.03;;;10.16;100.00
20622;BME280;10470;42.670;23.354;2023-04-19T02:47:27;94365.31;;;9.97;100.00
20622;BME280;10470;42.670;23.354;2023-04-19T02:49:52;94366.19;;;9.85;100.00
20622;BME280;10470;42.670;23.354;2023-04-19T02:52:18;94353.06;;;9.93;100.00
20622;BME280;10470;42.670;23.354;2023-04-19T02:54:43;94360.47;;;9.92;100.00
20622;BME280;10470;42.670;23.354;2023-04-19T02:57:09;94358.94;;;10.00;100.00
20622;BME280;10470;42.670;23.354;2023-04-19T02:59:34;94365.00;;;9.86;100.00
20622;BME280;10470;42.670;23.354;2023-04-19T03:02:00;94363.03;;;9.96;100.00
20622;BME280;10470;42.670;23.354;2023-04-19T03:04:25;94364.69;;;10.12;100.00
20622;BME280;10470;42.670;23.354;2023-04-19T03:06:53;94365.44;;;10.03;100.00
20622;BME280;10470;42.670;23.354;2023-04-19T03:09:18;94363.78;;;9.78;100.00
20622;BME280;10470;42.670;23.354;2023-04-19T03:11:44;94355.78;;;9.83;100.00
20622;BME280;10470;42.670;23.354;2023-04-19T03:14:09;94353.81;;;9.84;100.00
20622;BME280;10470;42.670;23.354;2023-04-19T03:16:34;94360.16;;;9.99;100.00
20622;BME280;10470;42.670;23.354;2023-04-19T03:19:02;94361.06;;;9.78;100.00
20622;BME280;10470;42.670;23.354;2023-04-19T03:21:27;94362.41;;;10.01;100.00
20622;BME280;10470;42.670;23.354;2023-04-19T03:23:54;94360.16;;;9.81;100.00
20622;BME280;10470;42.670;23.354;2023-04-19T03:26:19;94355.31;;;9.85;100.00
20622;BME280;10470;42.670;23.354;2023-04-19T03:28:45;94351.38;;;9.77;100.00
20622;BME280;10470;42.670;23.354;2023-04-19T03:31:10;94348.06;;;9.63;100.00
20622;BME280;10470;42.670;23.354;2023-04-19T03:33:36;94359.69;;;9.64;100.00
20622;BME280;10470;42.670;23.354;2023-04-19T03:36:01;94348.38;;;9.66;100.00
20622;BME280;10470;42.670;23.354;2023-04-19T03:38:28;94358.94;;;9.63;100.00
20622;BME280;10470;42.670;23.354;2023-04-19T03:40:53;94350.63;;;9.76;100.00
20622;BME280;10470;42.670;23.354;2023-04-19T03:43:20;94353.19;;;9.80;100.00
20622;BME280;10470;42.670;23.354;2023-04-19T03:45:46;94351.84;;;9.66;100.00
20622;BME280;10470;42.670;23.354;2023-04-19T03:48:11;94347.44;;;9.59;100.00
20622;BME280;10470;42.670;23.354;2023-04-19T03:50:37;94349.25;;;9.53;100.00
20622;BME280;10470;42.670;23.354;2023-04-19T03:53:03;94345.91;;;9.49;100.00
20622;BME280;10470;42.670;23.354;2023-04-19T03:55:29;94348.34;;;9.56;100.00
20622;BME280;10470;42.670;23.354;2023-04-19T03:57:55;94348.94;;;9.42;100.00
20622;BME280;10470;42.670;23.354;2023-04-19T04:00:20;94342.59;;;9.54;100.00
20622;BME280;10470;42.670;23.354;2023-04-19T04:02:46;94348.19;;;9.51;100.00
20622;BME280;10470;42.670;23.354;2023-04-19T04:05:11;94342.00;;;9.69;100.00
20622;BME280;10470;42.670;23.354;2023-04-19T04:07:37;94343.06;;;9.53;100.00
20622;BME280;10470;42.670;23.354;2023-04-19T04:10:02;94351.09;;;9.84;100.00
20622;BME280;10470;42.670;23.354;2023-04-19T04:12:28;94357.91;;;9.70;100.00
20622;BME280;10470;42.670;23.354;2023-04-19T04:14:53;94359.09;;;9.69;100.00
20622;BME280;10470;42.670;23.354;2023-04-19T04:17:19;94365.41;;;9.48;100.00
20622;BME280;10470;42.670;23.354;2023-04-19T04:19:44;94360.31;;;9.68;100.00
20622;BME280;10470;42.670;23.354;2023-04-19T04:22:10;94366.34;;;9.72;100.00
20622;BME280;10470;42.670;23.354;2023-04-19T04:24:39;94363.13;;;9.37;100.00
20622;BME280;10470;42.670;23.354;2023-04-19T04:27:09;94363.56;;;9.35;100.00
20622;BME280;10470;42.670;23.354;2023-04-19T04:29:38;94363.56;;;9.35;100.00
20622;BME280;10470;42.670;23.354;2023-04-19T04:32:07;94363.41;;;9.39;100.00
20622;BME280;10470;42.670;23.354;2023-04-19T04:34:35;94363.25;;;9.33;100.00
20622;BME280;10470;42.670;23.354;2023-04-19T04:37:01;94360.44;;;9.55;100.00
20622;BME280;10470;42.670;23.354;2023-04-19T04:39:28;94361.31;;;9.43;100.00
20622;BME280;10470;42.670;23.354;2023-04-19T04:41:53;94366.91;;;9.49;100.00
20622;BME280;10470;42.670;23.354;2023-04-19T04:44:18;94368.56;;;9.46;100.00
20622;BME280;10470;42.670;23.354;2023-04-19T04:46:47;94366.31;;;9.54;100.00
20622;BME280;10470;42.670;23.354;2023-04-19T04:49:12;94373.72;;;9.53;100.00
20622;BME280;10470;42.670;23.354;2023-04-19T04:51:38;94361.06;;;9.69;100.00
20622;BME280;10470;42.670;23.354;2023-04-19T04:54:03;94367.69;;;9.58;100.00
20622;BME280;10470;42.670;23.354;2023-04-19T04:56:29;94366.19;;;9.57;100.00
20622;BME280;10470;42.670;23.354;2023-04-19T04:58:55;94371.91;;;9.50;100.00
20622;BME280;10470;42.670;23.354;2023-04-19T05:01:22;94354.50;;;9.38;100.00
20622;BME280;10470;42.670;23.354;2023-04-19T05:03:49;94367.41;;;9.66;100.00
20622;BME280;10470;42.670;23.354;2023-04-19T05:06:15;94365.91;;;9.74;100.00
20622;BME280;10470;42.670;23.354;2023-04-19T05:08:40;94371.03;;;10.09;100.00
20622;BME280;10470;42.670;23.354;2023-04-19T05:11:06;94374.66;;;9.78;100.00
20622;BME280;10470;42.670;23.354;2023-04-19T05:13:32;94379.97;;;10.09;100.00
20622;BME280;10470;42.670;23.354;2023-04-19T05:15:57;94386.28;;;9.69;100.00
20622;BME280;10470;42.670;23.354;2023-04-19T05:18:23;94376.00;;;9.64;100.00
20622;BME280;10470;42.670;23.354;2023-04-19T05:20:48;94378.59;;;9.77;100.00
20622;BME280;10470;42.670;23.354;2023-04-19T05:23:14;94377.69;;;9.89;100.00
20622;BME280;10470;42.670;23.354;2023-04-19T05:25:39;94376.94;;;9.89;100.00
20622;BME280;10470;42.670;23.354;2023-04-19T05:28:05;94380.56;;;9.95;100.00
20622;BME280;10470;42.670;23.354;2023-04-19T05:30:30;94381.03;;;9.84;100.00
20622;BME280;10470;42.670;23.354;2023-04-19T05:32:56;94391.25;;;9.61;100.00
20622;BME280;10470;42.670;23.354;2023-04-19T05:35:21;94380.25;;;9.65;100.00
20622;BME280;10470;42.670;23.354;2023-04-19T05:37:47;94377.22;;;9.72;100.00
20622;BME280;10470;42.670;23.354;2023-04-19T05:40:12;94385.56;;;9.87;100.00
20622;BME280;10470;42.670;23.354;2023-04-19T05:42:38;94384.03;;;9.95;100.00
20622;BME280;10470;42.670;23.354;2023-04-19T05:45:04;94374.22;;;9.89;100.00
20622;BME280;10470;42.670;23.354;2023-04-19T05:47:31;94378.91;;;9.88;100.00
20622;BME280;10470;42.670;23.354;2023-04-19T05:49:56;94384.94;;;9.74;100.00
20622;BME280;10470;42.670;23.354;2023-04-19T05:52:22;94386.13;;;9.63;100.00
20622;BME280;10470;42.670;23.354;2023-04-19T05:54:47;94377.38;;;9.69;100.00
20622;BME280;10470;42.670;23.354;2023-04-19T05:57:13;94391.44;;;9.76;100.00
20622;BME280;10470;42.670;23.354;2023-04-19T05:59:38;94391.59;;;9.82;100.00
20622;BME280;10470;42.670;23.354;2023-04-19T06:02:03;94393.44;;;9.94;100.00
20622;BME280;10470;42.670;23.354;2023-04-19T06:04:29;94387.69;;;9.92;100.00
20622;BME280;10470;42.670;23.354;2023-04-19T06:06:55;94398.41;;;10.05;100.00
20622;BME280;10470;42.670;23.354;2023-04-19T06:09:20;94393.72;;;9.87;100.00
20622;BME280;10470;42.670;23.354;2023-04-19T06:11:46;94391.47;;;10.04;100.00
20622;BME280;10470;42.670;23.354;2023-04-19T06:14:11;94393.75;;;10.33;100.00
20622;BME280;10470;42.670;23.354;2023-04-19T06:16:38;94392.81;;;10.27;100.00
20622;BME280;10470;42.670;23.354;2023-04-19T06:19:04;94386.19;;;10.28;100.00
20622;BME280;10470;42.670;23.354;2023-04-19T06:21:30;94399.78;;;10.46;100.00
20622;BME280;10470;42.670;23.354;2023-04-19T06:23:56;94400.84;;;10.40;100.00
20622;BME280;10470;42.670;23.354;2023-04-19T06:26:21;94404.97;;;10.35;100.00
20622;BME280;10470;42.670;23.354;2023-04-19T06:28:46;94397.78;;;10.65;100.00
20622;BME280;10470;42.670;23.354;2023-04-19T06:31:12;94399.75;;;10.74;100.00
20622;BME280;10470;42.670;23.354;2023-04-19T06:33:37;94394.94;;;10.50;100.00
20622;BME280;10470;42.670;23.354;2023-04-19T06:36:03;94401.00;;;10.36;100.00
20622;BME280;10470;42.670;23.354;2023-04-19T06:38:29;94398.25;;;10.64;100.00
20622;BME280;10470;42.670;23.354;2023-04-19T06:40:54;94403.38;;;10.80;100.00
20622;BME280;10470;42.670;23.354;2023-04-19T06:43:20;94402.09;;;11.00;100.00
20622;BME280;10470;42.670;23.354;2023-04-19T06:45:46;94406.03;;;11.08;100.00
20622;BME280;10470;42.670;23.354;2023-04-19T06:48:11;94406.28;;;11.19;100.00
20622;BME280;10470;42.670;23.354;2023-04-19T06:50:37;94404.59;;;10.70;100.00
20622;BME280;10470;42.670;23.354;2023-04-19T06:53:02;94410.97;;;10.67;100.00
20622;BME280;10470;42.670;23.354;2023-04-19T06:55:29;94406.47;;;11.06;100.00
20622;BME280;10470;42.670;23.354;2023-04-19T06:57:54;94417.50;;;11.54;100.00
20622;BME280;10470;42.670;23.354;2023-04-19T07:00:21;94424.06;;;11.38;100.00
20622;BME280;10470;42.670;23.354;2023-04-19T07:02:48;94437.69;;;11.05;100.00
20622;BME280;10470;42.670;23.354;2023-04-19T07:05:14;94427.72;;;11.35;100.00
20622;BME280;10470;42.670;23.354;2023-04-19T07:07:40;94426.31;;;11.73;100.00
20622;BME280;10470;42.670;23.354;2023-04-19T07:10:07;94426.44;;;11.55;100.00
20622;BME280;10470;42.670;23.354;2023-04-19T07:12:32;94431.75;;;11.49;100.00
20622;BME280;10470;42.670;23.354;2023-04-19T07:14:58;94438.63;;;12.02;100.00
20622;BME280;10470;42.670;23.354;2023-04-19T07:17:23;94429.72;;;11.26;100.00
20622;BME280;10470;42.670;23.354;2023-04-19T07:19:49;94429.75;;;11.17;100.00
20622;BME280;10470;42.670;23.354;2023-04-19T07:22:14;94429.94;;;11.46;100.00
20622;BME280;10470;42.670;23.354;2023-04-19T07:24:40;94425.09;;;11.41;100.00
20622;BME280;10470;42.670;23.354;2023-04-19T07:27:06;94431.03;;;11.40;100.00
20622;BME280;10470;42.670;23.354;2023-04-19T07:29:35;94415.13;;;11.38;100.00
20622;BME280;10470;42.670;23.354;2023-04-19T07:32:02;94434.34;;;11.44;100.00
20622;BME280;10470;42.670;23.354;2023-04-19T07:34:27;94440.84;;;11.46;100.00
20622;BME280;10470;42.670;23.354;2023-04-19T07:36:53;94432.59;;;11.31;100.00
20622;BME280;10470;42.670;23.354;2023-04-19T07:39:18;94425.69;;;11.12;100.00
20622;BME280;10470;42.670;23.354;2023-04-19T07:41:43;94424.91;;;11.54;100.00
20622;BME280;10470;42.670;23.354;2023-04-19T07:44:09;94425.06;;;11.50;100.00
20622;BME280;10470;42.670;23.354;2023-04-19T07:46:36;94433.69;;;11.91;100.00
20622;BME280;10470;42.670;23.354;2023-04-19T07:49:01;94429.59;;;11.53;100.00
20622;BME280;10470;42.670;23.354;2023-04-19T07:51:27;94430.75;;;11.28;100.00
20622;BME280;10470;42.670;23.354;2023-04-19T07:53:53;94432.13;;;11.66;100.00
20622;BME280;10470;42.670;23.354;2023-04-19T07:56:18;94426.00;;;11.80;100.00
20622;BME280;10470;42.670;23.354;2023-04-19T07:58:44;94436.34;;;12.00;100.00
20622;BME280;10470;42.670;23.354;2023-04-19T08:01:10;94430.50;;;11.84;100.00
20622;BME280;10470;42.670;23.354;2023-04-19T08:03:35;94442.03;;;11.88;100.00
20622;BME280;10470;42.670;23.354;2023-04-19T08:06:05;94433.25;;;11.50;100.00
20622;BME280;10470;42.670;23.354;2023-04-19T08:08:34;94424.63;;;11.52;100.00
20622;BME280;10470;42.670;23.354;2023-04-19T08:11:00;94435.03;;;11.96;100.00
20622;BME280;10470;42.670;23.354;2023-04-19T08:13:27;94445.13;;;12.05;100.00
20622;BME280;10470;42.670;23.354;2023-04-19T08:15:52;94436.63;;;11.78;100.00
20622;BME280;10470;42.670;23.354;2023-04-19T08:18:18;94441.50;;;12.22;100.00
20622;BME280;10470;42.670;23.354;2023-04-19T08:20:45;94442.25;;;12.62;100.00
20622;BME280;10470;42.670;23.354;2023-04-19T08:23:11;94429.47;;;11.81;100.00
20622;BME280;10470;42.670;23.354;2023-04-19T08:25:37;94431.88;;;11.88;100.00
20622;BME280;10470;42.670;23.354;2023-04-19T08:28:03;94439.31;;;12.12;100.00
20622;BME280;10470;42.670;23.354;2023-04-19T08:30:29;94434.53;;;12.21;100.00
20622;BME280;10470;42.670;23.354;2023-04-19T08:32:54;94436.31;;;11.76;100.00
20622;BME280;10470;42.670;23.354;2023-04-19T08:35:21;94428.00;;;11.71;100.00
20622;BME280;10470;42.670;23.354;2023-04-19T08:37:47;94434.50;;;12.07;100.00
20622;BME280;10470;42.670;23.354;2023-04-19T08:40:12;94434.38;;;12.40;100.00
20622;BME280;10470;42.670;23.354;2023-04-19T08:42:39;94432.69;;;12.28;100.00
20622;BME280;10470;42.670;23.354;2023-04-19T08:45:05;94431.00;;;12.30;100.00
20622;BME280;10470;42.670;23.354;2023-04-19T08:47:34;94431.88;;;12.12;100.00
20622;BME280;10470;42.670;23.354;2023-04-19T08:50:02;94422.94;;;12.51;100.00
20622;BME280;10470;42.670;23.354;2023-04-19T08:52:29;94427.19;;;12.66;100.00
20622;BME280;10470;42.670;23.354;2023-04-19T08:54:54;94426.31;;;12.45;100.00
20622;BME280;10470;42.670;23.354;2023-04-19T08:57:20;94423.84;;;12.33;100.00
20622;BME280;10470;42.670;23.354;2023-04-19T08:59:46;94423.34;;;12.34;100.00
20622;BME280;10470;42.670;23.354;2023-04-19T09:02:15;94427.38;;;12.24;100.00
20622;BME280;10470;42.670;23.354;2023-04-19T09:04:40;94430.34;;;12.35;100.00
20622;BME280;10470;42.670;23.354;2023-04-19T09:07:06;94422.31;;;12.32;100.00
20622;BME280;10470;42.670;23.354;2023-04-19T09:09:33;94419.53;;;12.56;100.00
20622;BME280;10470;42.670;23.354;2023-04-19T09:12:00;94412.88;;;12.18;100.00
20622;BME280;10470;42.670;23.354;2023-04-19T09:14:26;94418.22;;;12.81;100.00
20622;BME280;10470;42.670;23.354;2023-04-19T09:16:52;94406.56;;;13.10;100.00
20622;BME280;10470;42.670;23.354;2023-04-19T09:19:18;94420.78;;;13.44;100.00
20622;BME280;10470;42.670;23.354;2023-04-19T09:21:44;94416.25;;;12.81;100.00
20622;BME280;10470;42.670;23.354;2023-04-19T09:24:10;94417.75;;;12.67;100.00
20622;BME280;10470;42.670;23.354;2023-04-19T09:26:36;94414.28;;;12.82;100.00
20622;BME280;10470;42.670;23.354;2023-04-19T09:29:05;94407.94;;;13.35;100.00
20622;BME280;10470;42.670;23.354;2023-04-19T09:31:35;94421.81;;;13.17;100.00
20622;BME280;10470;42.670;23.354;2023-04-19T09:34:15;94416.94;;;13.71;100.00
20622;BME280;10470;42.670;23.354;2023-04-19T09:36:41;94416.53;;;13.78;100.00
20622;BME280;10470;42.670;23.354;2023-04-19T09:39:07;94417.31;;;14.19;100.00
20622;BME280;10470;42.670;23.354;2023-04-19T09:41:33;94419.75;;;13.26;100.00
20622;BME280;10470;42.670;23.354;2023-04-19T09:44:11;94415.34;;;13.85;100.00
20622;BME280;10470;42.670;23.354;2023-04-19T09:46:40;94414.28;;;13.62;100.00
20622;BME280;10470;42.670;23.354;2023-04-19T09:51:42;94408.88;;;14.03;100.00
20622;BME280;10470;42.670;23.354;2023-04-19T09:54:09;94406.19;;;13.67;100.00
20622;BME280;10470;42.670;23.354;2023-04-19T09:56:36;94403.19;;;14.06;100.00
20622;BME280;10470;42.670;23.354;2023-04-19T09:59:02;94401.19;;;14.27;100.00
20622;BME280;10470;42.670;23.354;2023-04-19T10:01:34;94390.38;;;13.97;100.00
20622;BME280;10470;42.670;23.354;2023-04-19T10:04:02;94391.34;;;13.39;100.00
20622;BME280;10470;42.670;23.354;2023-04-19T10:06:28;94389.44;;;13.80;100.00
20622;BME280;10470;42.670;23.354;2023-04-19T10:08:54;94384.38;;;13.93;100.00
20622;BME280;10470;42.670;23.354;2023-04-19T10:11:24;94398.69;;;13.83;100.00
20622;BME280;10470;42.670;23.354;2023-04-19T10:13:56;94390.84;;;13.75;100.00
20622;BME280;10470;42.670;23.354;2023-04-19T10:16:22;94387.34;;;14.16;100.00
20622;BME280;10470;42.670;23.354;2023-04-19T10:18:48;94383.13;;;13.94;100.00
20622;BME280;10470;42.670;23.354;2023-04-19T10:21:14;94391.13;;;13.77;100.00
20622;BME280;10470;42.670;23.354;2023-04-19T10:23:40;94384.50;;;14.05;100.00
20622;BME280;10470;42.670;23.354;2023-04-19T10:26:05;94386.41;;;13.98;100.00
20622;BME280;10470;42.670;23.354;2023-04-19T10:28:34;94385.28;;;13.90;100.00
20622;BME280;10470;42.670;23.354;2023-04-19T10:31:02;94375.75;;;14.27;100.00
20622;BME280;10470;42.670;23.354;2023-04-19T10:33:35;94372.91;;;15.20;100.00
20622;BME280;10470;42.670;23.354;2023-04-19T10:36:01;94376.25;;;14.72;100.00
20622;BME280;10470;42.670;23.354;2023-04-19T10:38:36;94374.19;;;14.40;100.00
20622;BME280;10470;42.670;23.354;2023-04-19T10:41:03;94374.41;;;14.63;100.00
20622;BME280;10470;42.670;23.354;2023-04-19T10:43:30;94375.13;;;14.84;100.00
20622;BME280;10470;42.670;23.354;2023-04-19T10:46:02;94367.31;;;15.03;100.00
20622;BME280;10470;42.670;23.354;2023-04-19T10:48:31;94368.25;;;14.94;100.00
20622;BME280;10470;42.670;23.354;2023-04-19T10:53:43;94366.56;;;15.02;100.00
20622;BME280;10470;42.670;23.354;2023-04-19T10:56:08;94354.09;;;15.39;100.00
20622;BME280;10470;42.670;23.354;2023-04-19T11:01:51;94361.91;;;14.82;100.00
20622;BME280;10470;42.670;23.354;2023-04-19T11:07:01;94357.50;;;16.20;100.00
20622;BME280;10470;42.670;23.354;2023-04-19T11:12:10;94361.72;;;15.66;100.00
20622;BME280;10470;42.670;23.354;2023-04-19T11:17:15;94360.56;;;16.44;100.00
20622;BME280;10470;42.670;23.354;2023-04-19T11:20:01;94348.44;;;16.08;100.00
20622;BME280;10470;42.670;23.354;2023-04-19T11:22:37;94348.41;;;16.90;100.00
20622;BME280;10470;42.670;23.354;2023-04-19T11:27:30;94358.78;;;16.24;100.00
20622;BME280;10470;42.670;23.354;2023-04-19T11:30:07;94358.41;;;17.38;100.00
20622;BME280;10470;42.670;23.354;2023-04-19T11:32:33;94362.09;;;16.51;100.00
20622;BME280;10470;42.670;23.354;2023-04-19T11:35:06;94361.59;;;17.82;98.81
20622;BME280;10470;42.670;23.354;2023-04-19T11:37:33;94363.44;;;16.89;95.78
20622;BME280;10470;42.670;23.354;2023-04-19T11:39:59;94363.09;;;16.70;94.34
20622;BME280;10470;42.670;23.354;2023-04-19T11:42:25;94350.88;;;16.71;92.28
20622;BME280;10470;42.670;23.354;2023-04-19T11:44:51;94362.66;;;16.83;89.91
20622;BME280;10470;42.670;23.354;2023-04-19T11:47:17;94350.44;;;17.12;88.89
20622;BME280;10470;42.670;23.354;2023-04-19T11:49:43;94340.34;;;16.70;87.01
20622;BME280;10470;42.670;23.354;2023-04-19T11:52:09;94348.66;;;17.09;86.18
20622;BME280;10470;42.670;23.354;2023-04-19T11:54:34;94350.56;;;17.82;82.99
20622;BME280;10470;42.670;23.354;2023-04-19T11:57:04;94354.91;;;19.13;75.11
20622;BME280;10470;42.670;23.354;2023-04-19T11:59:32;94348.56;;;18.41;74.82
20622;BME280;10470;42.670;23.354;2023-04-19T12:02:23;94346.19;;;18.62;74.26
20622;BME280;10470;42.670;23.354;2023-04-19T12:04:50;94344.50;;;18.94;70.63
20622;BME280;10470;42.670;23.354;2023-04-19T12:07:16;94325.66;;;18.10;73.52
20622;BME280;10470;42.670;23.354;2023-04-19T12:09:41;94331.78;;;19.16;69.22
20622;BME280;10470;42.670;23.354;2023-04-19T12:12:06;94344.28;;;18.45;74.26
20622;BME280;10470;42.670;23.354;2023-04-19T12:14:32;94342.91;;;19.35;70.04
20622;BME280;10470;42.670;23.354;2023-04-19T12:17:09;94338.06;;;20.34;63.55
20622;BME280;10470;42.670;23.354;2023-04-19T12:19:45;94339.03;;;19.98;63.55
20622;BME280;10470;42.670;23.354;2023-04-19T12:22:17;94335.91;;;18.62;64.51
20622;BME280;10470;42.670;23.354;2023-04-19T12:24:46;94338.72;;;18.04;71.91
20622;BME280;10470;42.670;23.354;2023-04-19T12:27:11;94328.53;;;17.87;80.94
20622;BME280;10470;42.670;23.354;2023-04-19T12:29:41;94324.97;;;19.47;82.01
20622;BME280;10470;42.670;23.354;2023-04-19T12:32:09;94334.88;;;21.91;66.23
20622;BME280;10470;42.670;23.354;2023-04-19T12:34:35;94317.34;;;19.53;70.46
20622;BME280;10470;42.670;23.354;2023-04-19T12:37:01;94319.97;;;19.70;74.22
20622;BME280;10470;42.670;23.354;2023-04-19T12:39:28;94325.03;;;21.63;64.51
20622;BME280;10470;42.670;23.354;2023-04-19T12:41:55;94330.94;;;21.73;62.98
20622;BME280;10470;42.670;23.354;2023-04-19T12:44:20;94325.81;;;19.36;69.32
20622;BME280;10470;42.670;23.354;2023-04-19T12:46:46;94321.69;;;18.88;73.21
20622;BME280;10470;42.670;23.354;2023-04-19T12:49:11;94320.84;;;18.22;76.99
20622;BME280;10470;42.670;23.354;2023-04-19T12:51:37;94330.50;;;21.69;70.33
20622;BME280;10470;42.670;23.354;2023-04-19T12:54:02;94328.84;;;18.67;75.03
20622;BME280;10470;42.670;23.354;2023-04-19T12:56:28;94316.91;;;18.53;78.83
20622;BME280;10470;42.670;23.354;2023-04-19T12:58:53;94318.91;;;18.94;77.09